createdAt,value
2022-08-19T00:01:39.795Z,95.40
2022-08-19T00:04:09.757Z,94.63
2022-08-19T00:06:39.482Z,93.20
2022-08-19T00:09:10.396Z,94.10
2022-08-19T00:11:39.762Z,94.43
2022-08-19T00:14:10.956Z,94.37
2022-08-19T00:16:39.716Z,95.60
2022-08-19T00:19:08.308Z,95.70
2022-08-19T00:21:39.239Z,96.47
2022-08-19T00:24:09.131Z,96.17
2022-08-19T00:26:38.701Z,96.17
2022-08-19T00:29:10.130Z,96.77
2022-08-19T00:31:38.323Z,96.57
2022-08-19T00:34:06.622Z,98.27
2022-08-19T00:36:35.104Z,97.83
2022-08-19T00:39:03.520Z,96.20
2022-08-19T00:41:31.983Z,99.57
2022-08-19T00:44:08.284Z,97.37
2022-08-19T00:46:42.022Z,98.47
2022-08-19T00:49:16.474Z,98.27
2022-08-19T00:51:49.162Z,97.33
2022-08-19T00:54:20.403Z,98.90
2022-08-19T00:56:58.306Z,96.90
2022-08-19T01:00:00.394Z,98.20
2022-08-19T01:02:18.442Z,97.37
2022-08-19T01:04:46.786Z,97.63
2022-08-19T01:07:19.619Z,97.20
2022-08-19T01:09:48.913Z,97.07
2022-08-19T01:12:18.125Z,97.80
2022-08-19T01:14:47.593Z,98.20
2022-08-19T01:17:18.963Z,99.83
2022-08-19T01:19:50.415Z,97.83
2022-08-19T01:22:30.047Z,97.10
2022-08-19T01:25:00.372Z,99.00
2022-08-19T01:27:31.453Z,99.23
2022-08-19T01:30:11.168Z,100.00
2022-08-19T01:32:40.471Z,100.30
2022-08-19T01:35:09.864Z,100.20
2022-08-19T01:37:45.965Z,100.80
2022-08-19T01:40:16.026Z,100.47
2022-08-19T01:42:44.404Z,100.90
2022-08-19T01:45:12.788Z,97.90
2022-08-19T01:47:41.572Z,98.70
2022-08-19T01:50:12.633Z,101.00
2022-08-19T01:52:42.096Z,100.53
2022-08-19T01:55:13.644Z,99.77
2022-08-19T01:57:46.206Z,100.83
2022-08-19T02:00:17.195Z,100.30
2022-08-19T02:02:45.815Z,101.13
2022-08-19T02:05:14.786Z,100.63
2022-08-19T02:07:45.572Z,100.90
2022-08-19T02:10:19.741Z,102.10
2022-08-19T02:12:50.488Z,102.00
2022-08-19T02:15:19.967Z,103.20
2022-08-19T02:17:50.135Z,100.77
2022-08-19T02:20:18.873Z,102.83
2022-08-19T02:22:47.192Z,102.60
2022-08-19T02:25:16.365Z,101.87
2022-08-19T02:27:45.437Z,101.00
2022-08-19T02:30:18.241Z,101.03
2022-08-19T02:32:46.625Z,101.40
2022-08-19T02:35:16.147Z,103.20
2022-08-19T02:38:02.841Z,100.70
2022-08-19T02:40:34.891Z,99.53
2022-08-19T02:43:03.340Z,100.90
2022-08-19T02:45:35.460Z,99.77
2022-08-19T02:48:05.907Z,100.07
2022-08-19T02:50:53.379Z,102.40
2022-08-19T02:53:23.093Z,103.13
2022-08-19T02:55:52.216Z,101.77
2022-08-19T02:58:22.220Z,103.03
2022-08-19T03:00:56.255Z,102.77
2022-08-19T03:03:24.710Z,103.30
2022-08-19T03:05:57.192Z,102.23
2022-08-19T03:08:26.874Z,102.77
2022-08-19T03:10:55.852Z,103.03
2022-08-19T03:13:24.303Z,105.50
2022-08-19T03:15:53.895Z,103.67
2022-08-19T03:18:23.271Z,101.50
2022-08-19T03:20:55.625Z,102.97
2022-08-19T03:23:25.801Z,103.63
2022-08-19T03:26:02.823Z,102.17
2022-08-19T03:28:51.319Z,103.40
2022-08-19T03:31:45.709Z,104.47
2022-08-19T03:34:13.375Z,105.00
2022-08-19T03:36:42.403Z,102.53
2022-08-19T03:39:11.771Z,105.47
2022-08-19T03:41:45.442Z,103.63
2022-08-19T03:44:17.909Z,105.50
2022-08-19T03:46:52.633Z,105.67
2022-08-19T03:49:21.897Z,105.43
2022-08-19T03:51:57.865Z,106.87
2022-08-19T03:54:28.692Z,105.77
2022-08-19T03:56:58.663Z,106.53
2022-08-19T03:59:29.126Z,106.63
2022-08-19T04:02:02.040Z,104.17
2022-08-19T04:04:32.020Z,102.90
2022-08-19T04:07:00.539Z,105.07
2022-08-19T04:09:29.136Z,105.70
2022-08-19T04:11:59.827Z,108.10
2022-08-19T04:14:32.821Z,111.10
2022-08-19T04:17:05.832Z,112.07
2022-08-19T04:19:35.885Z,114.13
2022-08-19T04:22:05.614Z,112.73
2022-08-19T04:24:35.528Z,113.77
2022-08-19T04:27:05.244Z,112.77
2022-08-19T04:29:34.227Z,112.37
2022-08-19T04:32:09.155Z,109.37
2022-08-19T04:35:02.195Z,112.17
2022-08-19T04:37:34.842Z,112.50
2022-08-19T04:40:25.798Z,113.17
2022-08-19T04:42:55.349Z,110.50
2022-08-19T04:45:24.262Z,109.33
2022-08-19T04:48:19.588Z,112.73
2022-08-19T04:50:49.429Z,110.80
2022-08-19T04:53:18.155Z,110.20
2022-08-19T04:55:46.476Z,108.10
2022-08-19T04:58:17.559Z,109.40
2022-08-19T05:00:46.068Z,109.17
2022-08-19T05:03:16.752Z,106.13
2022-08-19T05:05:46.795Z,108.80
2022-08-19T05:08:30.570Z,105.80
2022-08-19T05:11:02.992Z,107.20
2022-08-19T05:13:31.297Z,104.50
2022-08-19T05:16:01.076Z,104.23
2022-08-19T05:18:48.069Z,105.03
2022-08-19T05:21:36.911Z,105.20
2022-08-19T05:24:10.075Z,108.43
2022-08-19T05:26:40.642Z,108.50
2022-08-19T05:29:10.330Z,106.37
2022-08-19T05:31:41.627Z,108.70
2022-08-19T05:34:18.503Z,109.50
2022-08-19T05:36:48.979Z,107.70
2022-08-19T05:39:21.820Z,109.13
2022-08-19T05:41:55.287Z,114.13
2022-08-19T05:44:24.002Z,114.60
2022-08-19T05:46:54.223Z,118.70
2022-08-19T05:49:26.400Z,126.23
2022-08-19T05:51:55.929Z,131.73
2022-08-19T05:54:26.089Z,134.17
2022-08-19T05:56:55.162Z,128.97
2022-08-19T05:59:24.848Z,128.47
2022-08-19T06:01:55.423Z,132.80
2022-08-19T06:04:26.458Z,133.73
2022-08-19T06:06:57.442Z,131.80
2022-08-19T06:09:27.449Z,127.20
2022-08-19T06:12:00.790Z,130.93
2022-08-19T06:14:32.267Z,129.27
2022-08-19T06:17:06.779Z,124.00
2022-08-19T06:19:40.671Z,127.10
2022-08-19T06:22:12.943Z,129.80
2022-08-19T06:24:41.330Z,129.70
2022-08-19T06:27:10.996Z,125.03
2022-08-19T06:29:39.978Z,119.97
2022-08-19T06:32:08.654Z,117.77
2022-08-19T06:34:38.510Z,120.67
2022-08-19T06:37:07.026Z,115.90
2022-08-19T06:39:39.444Z,111.47
2022-08-19T06:42:12.474Z,119.93
2022-08-19T06:44:48.332Z,116.30
2022-08-19T06:47:23.982Z,113.23
2022-08-19T06:50:03.540Z,112.00
2022-08-19T06:52:34.281Z,112.77
2022-08-19T06:55:06.269Z,108.10
2022-08-19T06:57:35.923Z,102.53
2022-08-19T07:00:07.898Z,100.73
2022-08-19T07:02:39.107Z,92.77
2022-08-19T07:05:11.215Z,93.10
2022-08-19T07:07:43.998Z,88.57
2022-08-19T07:10:16.361Z,85.83
2022-08-19T07:12:45.684Z,82.80
2022-08-19T07:15:16.640Z,77.47
2022-08-19T07:17:44.958Z,72.90
2022-08-19T07:20:18.521Z,64.07
2022-08-19T07:22:47.408Z,56.60
2022-08-19T07:25:18.960Z,54.77
2022-08-19T07:27:48.707Z,50.90
2022-08-19T07:30:26.313Z,47.93
2022-08-19T07:32:54.872Z,43.63
2022-08-19T07:35:24.684Z,41.23
2022-08-19T07:37:54.282Z,41.20
2022-08-19T07:40:23.074Z,35.33
2022-08-19T07:42:51.394Z,33.57
2022-08-19T07:45:20.076Z,32.43
2022-08-19T07:47:51.227Z,32.57
2022-08-19T07:50:22.682Z,29.23
2022-08-19T07:52:52.780Z,28.20
2022-08-19T07:55:42.751Z,29.37
2022-08-19T07:58:13.660Z,27.20
2022-08-19T08:00:42.865Z,25.80
2022-08-19T08:03:11.367Z,26.80
2022-08-19T08:06:03.757Z,25.20
2022-08-19T08:08:51.013Z,25.33
2022-08-19T08:11:24.040Z,23.80
2022-08-19T08:14:01.084Z,23.90
2022-08-19T08:16:39.608Z,23.00
2022-08-19T08:19:20.714Z,24.47
2022-08-19T08:21:55.271Z,23.27
2022-08-19T08:24:28.315Z,22.10
2022-08-19T08:26:57.768Z,22.47
2022-08-19T08:29:27.295Z,21.30
2022-08-19T08:32:14.202Z,21.70
2022-08-19T08:34:43.742Z,21.53
2022-08-19T08:37:12.106Z,23.37
2022-08-19T08:39:42.428Z,22.40
2022-08-19T08:42:19.959Z,21.00
2022-08-19T08:47:25.203Z,22.00
2022-08-19T08:49:56.924Z,21.33
2022-08-19T08:52:31.840Z,20.93
2022-08-19T08:55:10.471Z,22.13
2022-08-19T08:57:45.097Z,22.10
2022-08-19T09:00:18.517Z,20.57
2022-08-19T09:02:50.782Z,21.23
2022-08-19T09:05:25.942Z,21.60
2022-08-19T09:08:02.739Z,21.20
2022-08-19T09:10:44.457Z,21.27
2022-08-19T09:13:23.821Z,21.50
2022-08-19T09:15:58.429Z,20.47
2022-08-19T09:18:29.804Z,20.90
2022-08-19T09:20:58.351Z,20.90
2022-08-19T09:23:27.897Z,26.80
2022-08-19T09:25:57.607Z,20.27
2022-08-19T09:28:27.479Z,19.73
2022-08-19T09:30:55.770Z,21.00
2022-08-19T09:33:25.268Z,21.87
2022-08-19T09:36:08.552Z,21.47
2022-08-19T09:38:43.678Z,20.87
2022-08-19T09:41:16.331Z,20.00
2022-08-19T09:43:48.727Z,20.57
2022-08-19T09:46:19.289Z,21.13
2022-08-19T09:48:51.624Z,21.97
2022-08-19T09:51:22.823Z,20.57
2022-08-19T09:53:55.065Z,20.60
2022-08-19T09:56:25.670Z,21.10
2022-08-19T09:58:54.249Z,21.43
2022-08-19T10:01:25.972Z,20.80
2022-08-19T10:03:56.557Z,21.80
2022-08-19T10:06:45.589Z,20.67
2022-08-19T10:09:18.389Z,25.13
2022-08-19T10:12:11.235Z,22.67
2022-08-19T10:14:48.288Z,21.43
2022-08-19T10:17:20.821Z,21.53
2022-08-19T10:19:59.156Z,24.03
2022-08-19T10:22:28.356Z,23.70
2022-08-19T10:24:57.988Z,21.13
2022-08-19T10:27:28.147Z,21.70
2022-08-19T10:30:09.932Z,22.90
2022-08-19T10:33:10.835Z,22.73
2022-08-19T10:35:57.035Z,22.10
2022-08-19T10:38:31.742Z,21.53
2022-08-19T10:41:17.623Z,22.80
2022-08-19T10:44:11.072Z,22.37
2022-08-19T10:47:17.289Z,21.57
2022-08-19T10:50:12.865Z,21.70
2022-08-19T10:52:50.159Z,22.57
2022-08-19T10:55:39.462Z,22.00
2022-08-19T10:58:13.423Z,22.13
2022-08-19T11:00:56.414Z,20.93
2022-08-19T11:03:32.474Z,21.97
2022-08-19T11:06:10.477Z,20.40
2022-08-19T11:09:03.634Z,20.70
2022-08-19T11:11:33.246Z,20.73
2022-08-19T11:14:19.401Z,20.50
2022-08-19T11:16:52.665Z,20.43
2022-08-19T11:19:28.674Z,20.87
2022-08-19T11:22:03.977Z,21.87
2022-08-19T11:24:52.274Z,21.63
2022-08-19T11:27:33.737Z,22.00
2022-08-19T11:30:04.931Z,21.13
2022-08-19T11:32:36.762Z,20.73
2022-08-19T11:35:08.840Z,22.50
2022-08-19T11:37:42.751Z,21.37
2022-08-19T11:40:19.678Z,22.20
2022-08-19T11:42:58.111Z,21.47
2022-08-19T11:45:30.327Z,22.50
2022-08-19T11:48:00.082Z,22.53
2022-08-19T11:50:32.234Z,21.63
2022-08-19T11:53:02.998Z,20.27
2022-08-19T11:55:43.320Z,21.47
2022-08-19T11:58:18.989Z,21.00
2022-08-19T12:00:54.706Z,20.83
2022-08-19T12:03:36.384Z,21.27
2022-08-19T12:06:10.694Z,21.47
2022-08-19T12:08:40.325Z,22.53
2022-08-19T12:11:17.208Z,21.67
2022-08-19T12:13:47.467Z,20.37
2022-08-19T12:16:29.317Z,19.87
2022-08-19T12:19:11.970Z,20.87
2022-08-19T12:22:04.420Z,20.20
2022-08-19T12:24:35.038Z,20.67
2022-08-19T12:27:08.921Z,20.13
2022-08-19T12:29:47.786Z,21.00
2022-08-19T12:33:12.278Z,19.67
2022-08-19T12:35:45.661Z,20.10
2022-08-19T12:38:17.091Z,20.43
2022-08-19T12:40:48.533Z,20.30
2022-08-19T12:43:23.124Z,20.23
2022-08-19T12:45:53.473Z,20.43
2022-08-19T12:48:35.198Z,19.87
2022-08-19T12:51:09.443Z,20.33
2022-08-19T12:53:59.097Z,42.13
2022-08-19T12:56:32.305Z,20.30
2022-08-19T12:59:03.955Z,20.30
2022-08-19T13:01:49.048Z,21.23
2022-08-19T13:04:18.708Z,20.07
2022-08-19T13:06:56.443Z,20.17
2022-08-19T13:09:31.267Z,20.20
2022-08-19T13:12:03.612Z,22.60
2022-08-19T13:14:33.964Z,20.87
2022-08-19T13:17:09.332Z,20.47
2022-08-19T13:19:41.172Z,19.97
2022-08-19T13:22:15.038Z,20.60
2022-08-19T13:24:49.420Z,20.37
2022-08-19T13:27:17.818Z,19.97
2022-08-19T13:30:05.477Z,20.73
2022-08-19T13:32:51.950Z,19.40
2022-08-19T13:35:21.427Z,20.67
2022-08-19T13:37:49.819Z,19.80
2022-08-19T13:40:28.074Z,20.40
2022-08-19T13:43:13.510Z,20.33
2022-08-19T13:45:58.007Z,23.13
2022-08-19T13:48:43.803Z,20.90
2022-08-19T13:51:13.173Z,24.07
2022-08-19T13:53:47.479Z,26.47
2022-08-19T13:56:25.543Z,26.73
2022-08-19T13:58:59.581Z,31.70
2022-08-19T14:01:29.043Z,32.53
2022-08-19T14:04:03.367Z,32.90
2022-08-19T14:06:31.381Z,32.90
2022-08-19T14:09:03.767Z,34.20
2022-08-19T14:11:33.312Z,32.17
2022-08-19T14:14:01.438Z,33.70
2022-08-19T14:16:32.581Z,33.30
2022-08-19T14:19:01.629Z,35.43
2022-08-19T14:21:31.145Z,34.60
2022-08-19T14:24:06.889Z,34.70
2022-08-19T14:26:37.489Z,36.30
2022-08-19T14:29:06.804Z,38.23
2022-08-19T14:31:34.982Z,38.03
2022-08-19T14:34:05.205Z,38.67
2022-08-19T14:36:39.359Z,40.90
2022-08-19T14:39:08.621Z,41.67
2022-08-19T14:41:44.502Z,44.43
2022-08-19T14:44:14.416Z,47.60
2022-08-19T14:46:49.286Z,48.33
2022-08-19T14:49:19.455Z,48.70
2022-08-19T14:51:48.011Z,50.17
2022-08-19T14:54:22.422Z,47.40
2022-08-19T14:56:55.963Z,49.30
2022-08-19T14:59:25.571Z,51.00
2022-08-19T15:01:54.740Z,49.47
2022-08-19T15:04:23.984Z,50.00
2022-08-19T15:06:59.815Z,52.17
2022-08-19T15:09:37.352Z,51.40
2022-08-19T15:12:07.429Z,53.47
2022-08-19T15:14:38.962Z,53.33
2022-08-19T15:17:11.185Z,56.57
2022-08-19T15:19:41.356Z,58.73
2022-08-19T15:22:09.516Z,59.70
2022-08-19T15:24:57.560Z,59.07
2022-08-19T15:27:37.014Z,57.53
2022-08-19T15:30:06.198Z,49.07
2022-08-19T15:32:40.728Z,46.57
2022-08-19T15:35:09.569Z,42.93
2022-08-19T15:37:37.908Z,44.40
2022-08-19T15:40:08.968Z,45.90
2022-08-19T15:42:42.398Z,44.40
2022-08-19T15:45:11.632Z,41.27
2022-08-19T15:47:40.701Z,44.33
2022-08-19T15:50:11.237Z,44.30
2022-08-19T15:52:49.974Z,46.70
2022-08-19T15:55:32.495Z,44.10
2022-08-19T15:58:28.335Z,44.63
2022-08-19T16:01:42.706Z,49.20
2022-08-19T16:04:28.596Z,45.33
2022-08-19T16:06:58.353Z,42.07
2022-08-19T16:09:29.935Z,44.60
2022-08-19T16:12:01.750Z,43.20
2022-08-19T16:14:33.547Z,40.20
2022-08-19T16:17:03.352Z,36.57
2022-08-19T16:19:32.581Z,36.80
2022-08-19T16:22:02.876Z,36.87
2022-08-19T16:24:33.556Z,40.07
2022-08-19T16:27:02.847Z,41.20
2022-08-19T16:29:39.180Z,41.50
2022-08-19T16:32:11.061Z,45.97
2022-08-19T16:34:40.205Z,43.10
2022-08-19T16:37:09.643Z,45.70
2022-08-19T16:39:38.102Z,43.53
2022-08-19T16:42:09.510Z,43.00
2022-08-19T16:44:43.384Z,44.10
2022-08-19T16:47:13.706Z,43.87
2022-08-19T16:49:53.241Z,41.33
2022-08-19T16:52:26.361Z,43.63
2022-08-19T16:54:55.265Z,43.40
2022-08-19T16:57:24.954Z,39.77
2022-08-19T16:59:54.497Z,42.30
2022-08-19T17:02:25.618Z,39.40
2022-08-19T17:04:59.291Z,40.47
2022-08-19T17:07:28.390Z,44.57
2022-08-19T17:09:57.222Z,46.53
2022-08-19T17:12:31.824Z,40.53
2022-08-19T17:15:07.147Z,41.23
2022-08-19T17:17:35.955Z,42.00
2022-08-19T17:20:06.405Z,39.07
2022-08-19T17:22:37.014Z,38.93
2022-08-19T17:25:05.586Z,38.73
2022-08-19T17:27:33.565Z,37.83
2022-08-19T17:30:05.189Z,37.50
2022-08-19T17:32:35.576Z,36.27
2022-08-19T17:35:05.943Z,34.47
2022-08-19T17:37:35.113Z,36.73
2022-08-19T17:40:03.991Z,36.83
2022-08-19T17:42:32.679Z,39.93
2022-08-19T17:45:03.332Z,40.30
2022-08-19T17:47:31.564Z,41.63
2022-08-19T17:49:59.795Z,45.57
2022-08-19T17:52:28.189Z,45.43
2022-08-19T17:54:56.612Z,46.20
2022-08-19T17:57:24.634Z,47.70
2022-08-19T17:59:53.451Z,47.60
2022-08-19T18:02:23.072Z,50.03
2022-08-19T18:04:51.318Z,49.50
2022-08-19T18:07:21.525Z,50.70
2022-08-19T18:09:52.789Z,51.37
2022-08-19T18:12:26.565Z,52.57
2022-08-19T18:14:54.948Z,50.27
2022-08-19T18:17:25.974Z,50.70
2022-08-19T18:19:53.995Z,48.00
2022-08-19T18:22:26.644Z,48.60
2022-08-19T18:24:56.071Z,48.30
2022-08-19T18:27:24.237Z,45.80
2022-08-19T18:29:52.495Z,45.57
2022-08-19T18:32:24.058Z,44.40
2022-08-19T18:34:55.432Z,45.83
2022-08-19T18:37:25.559Z,43.77
2022-08-19T18:40:11.299Z,45.60
2022-08-19T18:43:01.614Z,46.10
2022-08-19T18:45:47.046Z,50.53
2022-08-19T18:48:32.432Z,54.27
2022-08-19T18:51:03.243Z,54.60
2022-08-19T18:53:32.898Z,57.00
2022-08-19T18:56:01.265Z,60.23
2022-08-19T18:58:34.180Z,62.53
2022-08-19T19:01:11.451Z,61.77
2022-08-19T19:03:45.923Z,63.50
2022-08-19T19:06:18.818Z,62.70
2022-08-19T19:08:46.941Z,65.90
2022-08-19T19:11:20.336Z,63.77
2022-08-19T19:13:49.657Z,66.27
2022-08-19T19:16:22.401Z,67.97
2022-08-19T19:18:52.834Z,71.77
2022-08-19T19:21:24.103Z,69.03
2022-08-19T19:23:52.669Z,73.00
2022-08-19T19:26:21.734Z,71.50
2022-08-19T19:28:55.885Z,74.20
2022-08-19T19:31:34.677Z,69.30
2022-08-19T19:34:02.770Z,73.57
2022-08-19T19:36:34.608Z,77.50
2022-08-19T19:39:05.182Z,73.57
2022-08-19T19:41:35.585Z,75.17
2022-08-19T19:44:30.207Z,77.10
2022-08-19T19:47:00.114Z,79.13
2022-08-19T19:49:32.628Z,81.23
2022-08-19T19:52:03.292Z,77.80
2022-08-19T19:54:33.461Z,81.00
2022-08-19T19:57:02.783Z,82.50
2022-08-19T19:59:30.906Z,80.93
2022-08-19T20:01:59.891Z,82.07
2022-08-19T20:04:30.454Z,82.37
2022-08-19T20:06:59.875Z,93.60
2022-08-19T20:09:43.663Z,95.67
2022-08-19T20:12:18.605Z,92.77
2022-08-19T20:14:49.872Z,90.13
2022-08-19T20:17:20.549Z,83.90
2022-08-19T20:19:53.658Z,85.50
2022-08-19T20:22:25.618Z,87.77
2022-08-19T20:24:55.251Z,83.97
2022-08-19T20:27:27.514Z,85.50
2022-08-19T20:29:59.488Z,87.50
2022-08-19T20:32:27.625Z,87.10
2022-08-19T20:34:55.748Z,85.60
2022-08-19T20:37:24.967Z,82.57
2022-08-19T20:39:54.683Z,87.03
2022-08-19T20:42:28.942Z,86.43
2022-08-19T20:44:59.110Z,87.33
2022-08-19T20:47:29.641Z,86.00
2022-08-19T20:49:58.929Z,87.23
2022-08-19T20:52:28.127Z,88.30
2022-08-19T20:54:59.801Z,88.43
2022-08-19T20:57:28.085Z,91.70
2022-08-19T20:59:59.545Z,92.87
2022-08-19T21:02:29.544Z,92.67
2022-08-19T21:05:00.331Z,90.20
2022-08-19T21:07:38.941Z,93.20
2022-08-19T21:10:11.338Z,93.70
2022-08-19T21:12:45.273Z,93.07
2022-08-19T21:15:15.382Z,95.93
2022-08-19T21:17:49.538Z,92.00
2022-08-19T21:20:18.363Z,93.47
2022-08-19T21:22:48.464Z,95.10
2022-08-19T21:25:19.226Z,93.20
2022-08-19T21:27:48.476Z,96.67
2022-08-19T21:30:16.781Z,98.30
2022-08-19T21:32:50.490Z,94.97
2022-08-19T21:35:23.515Z,95.07
2022-08-19T21:37:53.821Z,93.30
2022-08-19T21:40:25.339Z,96.30
2022-08-19T21:42:54.777Z,97.70
2022-08-19T21:45:23.566Z,93.80
2022-08-19T21:48:01.889Z,92.23
2022-08-19T21:50:32.481Z,95.97
2022-08-19T21:53:02.000Z,96.23
2022-08-19T21:55:37.651Z,94.90
2022-08-19T21:58:12.696Z,97.53
2022-08-19T22:00:42.212Z,96.03
2022-08-19T22:03:10.331Z,95.70
2022-08-19T22:05:38.447Z,96.73
2022-08-19T22:08:08.945Z,100.23
2022-08-19T22:10:39.205Z,96.80
2022-08-19T22:13:09.537Z,98.93
2022-08-19T22:15:44.517Z,99.97
2022-08-19T22:18:19.001Z,98.97
2022-08-19T22:20:53.178Z,97.57
2022-08-19T22:23:22.214Z,101.83
2022-08-19T22:25:51.768Z,96.40
2022-08-19T22:28:27.853Z,95.43
2022-08-19T22:31:11.899Z,96.10
2022-08-19T22:33:43.779Z,94.43
2022-08-19T22:36:14.764Z,94.20
2022-08-19T22:38:43.001Z,97.87
2022-08-19T22:41:18.515Z,95.17
2022-08-19T22:43:58.568Z,92.97
2022-08-19T22:46:27.900Z,92.80
2022-08-19T22:49:01.383Z,94.87
2022-08-19T22:51:52.331Z,94.17
2022-08-19T22:54:23.478Z,91.53
2022-08-19T22:56:53.547Z,91.40
2022-08-19T22:59:23.648Z,89.63
2022-08-19T23:01:53.742Z,93.17
2022-08-19T23:04:23.368Z,94.17
2022-08-19T23:06:59.454Z,96.50
2022-08-19T23:09:30.354Z,94.67
2022-08-19T23:12:03.069Z,93.07
2022-08-19T23:14:32.265Z,95.43
2022-08-19T23:17:01.475Z,91.10
2022-08-19T23:19:29.785Z,91.47
2022-08-19T23:21:59.331Z,96.13
2022-08-19T23:24:29.052Z,91.77
2022-08-19T23:27:21.801Z,87.57
2022-08-19T23:30:16.331Z,90.30
2022-08-19T23:32:47.119Z,92.10
2022-08-19T23:35:16.226Z,89.67
2022-08-19T23:37:45.343Z,88.20
2022-08-19T23:40:17.350Z,89.87
2022-08-19T23:42:52.395Z,92.87
2022-08-19T23:45:22.959Z,94.97
2022-08-19T23:47:53.556Z,95.83
2022-08-19T23:50:22.431Z,93.53
2022-08-19T23:52:52.206Z,93.80
2022-08-19T23:55:22.832Z,97.90
2022-08-19T23:57:53.871Z,96.03
